Terminal Aerodrome Forecast
Issued by NWS

Home | Current Version | Previous Version | Text Only | Print | Product List | Glossary On
Versions: 1 2 3 4 5 6 7 8 9 10 11 12 13 14 15
385
FTUS43 KAPX 252327
TAFPLN
TAF
KPLN 252327Z 2600/2624 14010KT P6SM VCSH BKN050 WS020/17035KT
     FM260200 16011G19KT 6SM SHRA OVC040 WS020/17035KT
     FM260600 18009KT 6SM SHRA OVC015 WS020/17035KT
     FM260800 17008KT 6SM SHRA OVC008
     FM261000 18007KT P6SM OVC015
     FM261300 23007KT P6SM OVC025
     FM261600 24011G21KT P6SM OVC025
     FM262100 24011G23KT P6SM -SHRA SCT025 OVC030=

USA.gov is the U.S. government's official web portal to all federal, state and local government web resources and services.